TAF KAUG
KAUG 280523Z 2806/2906 27007KT P6SM FEW250 FM290400 00000KT P6SM BKN040=
METAR KAUG
WC KAUG
WS KAUG
WV KAUG